Contact Us:
Email: info@sawbill.com
Phone: (218)663-7150
Fax: (218)663-7980
Mail: 4620 Sawbill Trail
Box 2129
Tofte, MN 55615


Powered by
Movable Type 3.15
 
Sawbill Weather History Archives: September 2017
Current Sawbill Weather History | « August 2017 | October 2017 »


Date

High
Temperature

Low
Temperature

Barometric
Pressure

Relative
Humidity 7AM

9 AM
Temperature

Moisture

Snow

9/30/17 57 40 30.10 93% 49 0"
9/29/17 58 41 30.18 85% 49 0"
9/28/17 59 46 30.18 86% 46 .28"
9/27/17 52 42 30.06 96% 46 Trace
9/26/17 55 45 30.04 94% 45 0"
9/25/17 59 50 30.00 98% 51 .2"
9/24/17 75 36 30.02 84% 57 .5"
9/23/17 76 61 30.00 84% 70 .02"
9/22/17 82 59 30.00 89% 58 .19"
9/21/17 72 35 30.00 75% 55 0"
9/20/17 69 42 30.00 92% 60 .79"
9/19/17 71 52 30.02 87% 58 0"
9/18/17 61 35 30.00 92% 47 0"
9/17/17 60 38 30.00 80% 51 .06"
9/16/17 66 50 30.00 98% 50 .48"
9/15/17 59 53 30.00 98% 56 .5"
9/14/17 77 53 30.00 98% 59 .98"
9/13/17 82 64 29.92 81% 70 0"
9/12/17 75 46 29.92 74% 53 0"
9/11/17 72 46 30.08 72% 46 0"
9/10/17 66 48 30.12 78% 59 0"
9/9/17 61 38 30.26 90% 48 0"
9/8/17 60 37 30.28 78% 38 0"
9/7/17 60 40 30.12 88% 51 .19"
9/6/17 54 43 30.02 91% 47 Trace
9/5/17 65 43 30.04 87% 46 0"
9/4/17 64 50 30.10 90% 54 0"
9/3/17 73 48 30.10 71% 64 0"
9/2/17 70 51 30.20 91% 64 0"
9/1/17 68 46 30.20 79% 57 0"
 


Home I Trip Planning I Rentals and Outfitting I Reservations I Campgrounds I Sawbill Store I Sawbill News I Contact

© 1997 - 2017, Sawbill Canoe Outfitters, Inc. I Privacy Policy